Mesa.AZweather.com - Mesa, AZ
   Red Mountain Frwy and University Dr., El 1518 ft.
       --- Tuesday  Jan. 11, 2022 ---
 
 High Temperature ..  72F at 14:10
 Low Temperature ...  48F at 21:32
 
 High Humidity .....  56% at 21:29
 Low Humidity ......  24% at 14:16
 
 High Barometer ....  30.33 at 10:17
 Low Barometer .....  30.15 at 16:22
 
 High Dew Point ....  36F at 13:56
 Low Dew Point .....  24F at 23:36
 
 Rainfall Total ....  0.00 in.
 
 High Wind Speed ...  ---
                     
 
 Time   Temp  Humi  Rain     Baro  DewPt  Wind
00:00,  57F, 43%, 0.00 in, 30.30, 35F, ---
00:30,  55F, 45%, 0.00 in, 30.29, 34F, ---
01:00,  53F, 48%, 0.00 in, 30.27, 34F, ---
01:30,  52F, 49%, 0.00 in, 30.27, 33F, ---
02:00,  52F, 50%, 0.00 in, 30.28, 34F, ---
02:30,  54F, 47%, 0.00 in, 30.27, 34F, ---
03:00,  55F, 46%, 0.00 in, 30.28, 35F, ---
03:30,  55F, 45%, 0.00 in, 30.27, 34F, ---
04:00,  55F, 43%, 0.00 in, 30.26, 33F, ---
04:30,  56F, 42%, 0.00 in, 30.27, 33F, ---
05:00,  55F, 43%, 0.00 in, 30.26, 33F, ---
05:30,  55F, 43%, 0.00 in, 30.25, 33F, ---
06:00,  54F, 44%, 0.00 in, 30.27, 32F, ---
06:30,  54F, 44%, 0.00 in, 30.26, 32F, ---
07:00,  54F, 44%, 0.00 in, 30.26, 32F, ---
07:30,  53F, 44%, 0.00 in, 30.28, 32F, ---
08:00,  54F, 44%, 0.00 in, 30.27, 32F, ---
08:30,  54F, 43%, 0.00 in, 30.28, 32F, ---
09:00,  56F, 41%, 0.00 in, 30.29, 32F, ---
09:30,  57F, 39%, 0.00 in, 30.31, 33F, ---
10:00,  58F, 37%, 0.00 in, 30.32, 31F, ---
10:30,  61F, 31%, 0.00 in, 30.31, 30F, ---
11:00,  63F, 28%, 0.00 in, 30.31, 29F, ---
11:30,  66F, 29%, 0.00 in, 30.29, 33F, ---
12:00,  68F, 29%, 0.00 in, 30.26, 35F, ---
12:30,  70F, 26%, 0.00 in, 30.24, 33F, ---
13:00,  70F, 26%, 0.00 in, 30.24, 33F, ---
13:30,  70F, 26%, 0.00 in, 30.23, 33F, ---
14:00,  71F, 27%, 0.00 in, 30.21, 36F, ---
14:30,  71F, 25%, 0.00 in, 30.21, 34F, ---
15:00,  71F, 24%, 0.00 in, 30.20, 33F, ---
15:30,  71F, 24%, 0.00 in, 30.17, 33F, ---
16:00,  70F, 26%, 0.00 in, 30.17, 33F, ---
16:30,  69F, 25%, 0.00 in, 30.16, 32F, ---
17:00,  69F, 25%, 0.00 in, 30.17, 32F, ---
17:30,  67F, 29%, 0.00 in, 30.18, 33F, ---
18:00,  63F, 31%, 0.00 in, 30.18, 32F, ---
18:30,  60F, 34%, 0.00 in, 30.20, 32F, ---
19:00,  58F, 38%, 0.00 in, 30.22, 32F, ---
19:30,  56F, 42%, 0.00 in, 30.22, 33F, ---
20:00,  54F, 46%, 0.00 in, 30.23, 33F, ---
20:30,  52F, 50%, 0.00 in, 30.23, 34F, ---
21:00,  50F, 53%, 0.00 in, 30.24, 34F, ---
21:30,  49F, 56%, 0.00 in, 30.26, 33F, ---
22:00,  48F, 55%, 0.00 in, 30.26, 33F, ---
22:30,  51F, 51%, 0.00 in, 30.27, 34F, ---
23:00,  51F, 47%, 0.00 in, 30.26, 32F, ---
23:30,  55F, 31%, 0.00 in, 30.26, 25F, ---
23:59,  56F, 29%, 0.00 in, 30.26, 24F, ---